Time;durP1;ratioP1;P1;durP2;ratioP2;P2;SDS_P1;SDS_P2;PMS_P1;PMS_P2;Temp;Humidity;BMP_temperature;BMP_pressure;BME280_temperature;BME280_humidity;BME280_pressure;Samples;Min_cycle;Max_cycle;Signal;HPM_P1;HPM_P2
2024/01/28 00:02:20;;;;;;;16.42;5.13;;;2.30;99.90;;;;;;5010906;28;20026;-73
2024/01/28 00:04:45;;;;;;;17.27;4.70;;;2.30;99.90;;;;;;5011778;28;20105;-72
2024/01/28 00:07:11;;;;;;;13.95;5.05;;;2.40;99.90;;;;;;5011781;28;20124;-75
2024/01/28 00:09:37;;;;;;;14.50;5.10;;;2.40;99.90;;;;;;5011759;28;20026;-71
2024/01/28 00:12:03;;;;;;;14.73;4.72;;;2.50;99.90;;;;;;5011303;28;20034;-72
2024/01/28 00:14:28;;;;;;;16.58;4.90;;;2.50;99.90;;;;;;5009502;28;20558;-72
2024/01/28 00:16:54;;;;;;;14.82;4.75;;;2.40;99.90;;;;;;5005238;28;20084;-72
2024/01/28 00:19:20;;;;;;;15.48;4.82;;;2.30;99.90;;;;;;4995097;28;20047;-70
2024/01/28 00:21:45;;;;;;;16.25;5.15;;;2.30;99.90;;;;;;4999532;28;20438;-72
2024/01/28 00:24:11;;;;;;;17.30;5.35;;;2.30;99.90;;;;;;5007360;28;20073;-73
2024/01/28 00:26:38;;;;;;;19.48;4.90;;;2.20;99.90;;;;;;4991809;28;20374;-72
2024/01/28 00:29:04;;;;;;;14.70;5.05;;;2.20;99.90;;;;;;4992286;28;20042;-71
2024/01/28 00:31:29;;;;;;;12.73;4.93;;;2.30;99.90;;;;;;4991899;28;20383;-72
2024/01/28 00:33:55;;;;;;;15.65;4.90;;;2.30;99.90;;;;;;5008957;28;20542;-72
2024/01/28 00:36:20;;;;;;;19.35;5.18;;;2.20;99.90;;;;;;5004004;28;20030;-71
2024/01/28 00:38:46;;;;;;;14.30;4.78;;;2.20;99.90;;;;;;5011697;28;20121;-72
2024/01/28 00:41:28;;;;;;;14.30;4.88;;;2.10;99.90;;;;;;5011282;28;20128;-72
2024/01/28 00:43:54;;;;;;;12.52;4.93;;;2.10;99.90;;;;;;5011370;28;20155;-72
2024/01/28 00:46:20;;;;;;;15.55;5.22;;;2.10;99.90;;;;;;4998512;28;20042;-72
2024/01/28 00:48:46;;;;;;;17.52;5.03;;;2.20;99.90;;;;;;4991762;28;20607;-71
2024/01/28 00:51:15;;;;;;;11.70;4.88;;;2.20;99.90;;;;;;4991586;28;20121;-72
2024/01/28 00:53:41;;;;;;;16.77;4.57;;;2.30;99.90;;;;;;4991607;28;20753;-71
2024/01/28 00:56:07;;;;;;;15.95;6.82;;;2.30;99.90;;;;;;4999918;28;20037;-69
2024/01/28 00:58:33;;;;;;;12.70;4.70;;;2.40;99.90;;;;;;5021139;28;20367;-70
2024/01/28 01:00:59;;;;;;;25.65;9.40;;;2.10;99.90;;;;;;4998969;28;20106;-72
2024/01/28 01:03:25;;;;;;;20.00;7.75;;;1.90;99.90;;;;;;5006453;28;20064;-69
2024/01/28 01:05:51;;;;;;;16.67;5.82;;;1.30;99.90;;;;;;4993834;28;20039;-71
2024/01/28 01:08:16;;;;;;;18.65;5.35;;;1.20;99.90;;;;;;5007503;28;20348;-75
2024/01/28 01:10:42;;;;;;;14.43;6.18;;;1.30;99.90;;;;;;5001162;28;20038;-72
2024/01/28 01:13:08;;;;;;;13.57;5.88;;;1.40;99.90;;;;;;5011190;28;20038;-72
2024/01/28 01:15:33;;;;;;;16.98;5.57;;;1.40;99.90;;;;;;5003547;28;20030;-72
2024/01/28 01:17:59;;;;;;;19.17;5.25;;;1.20;99.90;;;;;;5002806;28;20445;-71
2024/01/28 01:20:25;;;;;;;12.15;5.00;;;1.20;99.90;;;;;;5010364;28;20390;-71
2024/01/28 01:22:51;;;;;;;15.07;5.78;;;1.30;99.90;;;;;;5010978;28;20060;-71
2024/01/28 01:25:17;;;;;;;12.35;4.60;;;1.30;99.90;;;;;;5009915;28;20030;-75
2024/01/28 01:27:45;;;;;;;12.55;4.68;;;1.50;99.90;;;;;;5010338;28;20030;-72
2024/01/28 01:30:11;;;;;;;15.70;4.50;;;1.70;99.90;;;;;;4995368;28;20023;-70
2024/01/28 01:32:40;;;;;;;12.30;4.63;;;1.70;99.90;;;;;;5009456;28;20478;-72
2024/01/28 01:35:09;;;;;;;13.43;5.78;;;1.80;99.90;;;;;;5009437;28;20493;-70
2024/01/28 01:37:35;;;;;;;9.18;4.00;;;1.70;99.90;;;;;;5005880;28;20449;-72
2024/01/28 01:40:01;;;;;;;11.85;5.63;;;1.80;99.90;;;;;;5010331;28;20053;-71
2024/01/28 01:42:27;;;;;;;20.70;8.85;;;1.80;99.90;;;;;;5009513;28;20045;-72
2024/01/28 01:44:53;;;;;;;15.00;5.38;;;1.00;99.90;;;;;;5008794;28;20401;-72
2024/01/28 01:47:19;;;;;;;11.48;4.40;;;0.90;99.90;;;;;;5008884;28;20033;-74
2024/01/28 01:49:46;;;;;;;10.93;4.75;;;1.10;99.90;;;;;;5004961;28;20490;-72
2024/01/28 01:52:16;;;;;;;17.95;7.28;;;1.30;99.90;;;;;;5005597;28;20026;-71
2024/01/28 01:54:43;;;;;;;16.60;6.55;;;1.40;99.90;;;;;;5008739;28;20093;-71
2024/01/28 01:57:11;;;;;;;13.75;4.80;;;1.00;99.90;;;;;;5002229;28;20033;-70
2024/01/28 01:59:38;;;;;;;15.93;6.05;;;1.00;99.90;;;;;;5006758;28;20386;-72
2024/01/28 02:02:08;;;;;;;16.05;5.00;;;1.10;99.90;;;;;;5000134;28;20050;-71
2024/01/28 02:04:34;;;;;;;26.33;9.33;;;1.30;99.90;;;;;;5007952;28;20560;-72
2024/01/28 02:07:00;;;;;;;16.63;6.97;;;0.90;99.90;;;;;;5001927;28;20269;-72
2024/01/28 02:09:25;;;;;;;20.88;8.00;;;0.40;99.90;;;;;;4994365;28;20035;-72
2024/01/28 02:11:51;;;;;;;20.92;7.10;;;0.20;99.90;;;;;;4990437;28;20044;-72
2024/01/28 02:14:24;;;;;;;20.25;7.60;;;0.10;99.90;;;;;;4994179;28;20121;-72
2024/01/28 02:16:50;;;;;;;20.30;6.63;;;-0.10;99.90;;;;;;4990510;28;20399;-72
2024/01/28 02:19:16;;;;;;;19.70;7.07;;;0.00;99.90;;;;;;5000456;28;20022;-72
2024/01/28 02:21:42;;;;;;;21.55;7.90;;;0.00;99.90;;;;;;5006888;28;20287;-73
2024/01/28 02:24:07;;;;;;;16.52;7.22;;;-0.10;99.90;;;;;;4990951;28;20109;-72
2024/01/28 02:26:33;;;;;;;25.70;8.73;;;-0.10;99.90;;;;;;4997519;28;20105;-72
2024/01/28 02:28:59;;;;;;;19.13;7.45;;;-0.10;99.90;;;;;;4997678;28;20117;-71
2024/01/28 02:31:24;;;;;;;21.05;8.13;;;-0.40;99.90;;;;;;5006989;28;20036;-71
2024/01/28 02:33:50;;;;;;;23.10;8.38;;;-0.60;99.90;;;;;;4996257;28;20493;-71
2024/01/28 02:36:16;;;;;;;16.90;5.40;;;-0.70;99.90;;;;;;5002358;28;20029;-72
2024/01/28 02:38:42;;;;;;;11.95;4.80;;;-0.50;99.90;;;;;;4990375;28;20669;-72
2024/01/28 02:41:08;;;;;;;21.35;8.10;;;-0.10;99.90;;;;;;5005698;28;20054;-71
2024/01/28 02:43:34;;;;;;;12.55;4.72;;;0.10;99.90;;;;;;5003926;28;20080;-71
2024/01/28 02:46:00;;;;;;;20.92;8.25;;;0.00;99.90;;;;;;5008093;28;20380;-71
2024/01/28 02:48:25;;;;;;;19.33;7.90;;;0.00;99.90;;;;;;4992303;28;20091;-72
2024/01/28 02:50:51;;;;;;;15.70;7.10;;;-0.30;99.90;;;;;;4996422;28;20031;-71
2024/01/28 02:53:17;;;;;;;24.95;8.98;;;-0.40;99.90;;;;;;4996578;28;20026;-71
2024/01/28 02:55:42;;;;;;;18.90;7.80;;;-0.50;99.90;;;;;;5003993;28;20057;-70
2024/01/28 02:58:08;;;;;;;21.70;7.70;;;-1.00;99.90;;;;;;5008700;28;20112;-71
2024/01/28 03:00:35;;;;;;;22.10;8.30;;;-1.10;99.90;;;;;;5006427;28;20029;-72
2024/01/28 03:03:03;;;;;;;24.70;8.13;;;-1.10;99.90;;;;;;4995088;28;20034;-70
2024/01/28 03:05:29;;;;;;;21.45;8.00;;;-1.10;99.90;;;;;;4992987;28;20033;-70
2024/01/28 03:07:55;;;;;;;20.30;7.70;;;-1.20;99.90;;;;;;4997187;28;20383;-71
2024/01/28 03:10:21;;;;;;;19.25;7.63;;;-1.20;99.90;;;;;;4997380;28;20038;-71
2024/01/28 03:12:49;;;;;;;23.75;7.70;;;-1.10;99.90;;;;;;5006388;28;20029;-72
2024/01/28 03:15:16;;;;;;;20.20;7.63;;;-1.10;99.90;;;;;;5008544;28;20507;-70
2024/01/28 03:17:42;;;;;;;19.17;7.70;;;-1.20;99.90;;;;;;5000288;28;20033;-70
2024/01/28 03:20:08;;;;;;;20.42;6.85;;;-1.20;99.90;;;;;;4996757;28;20044;-70
2024/01/28 03:22:34;;;;;;;19.70;7.13;;;-1.20;99.90;;;;;;5002077;28;20034;-72
2024/01/28 03:25:00;;;;;;;18.15;7.00;;;-1.20;99.90;;;;;;4995210;28;20030;-71
2024/01/28 03:27:25;;;;;;;23.00;7.82;;;-1.20;99.90;;;;;;4988753;28;20042;-72
2024/01/28 03:29:51;;;;;;;24.30;7.50;;;-1.20;99.90;;;;;;4988907;28;20050;-69
2024/01/28 03:32:17;;;;;;;19.98;7.10;;;-1.20;99.90;;;;;;5006675;28;20030;-71
2024/01/28 03:34:42;;;;;;;18.83;7.38;;;-1.30;99.90;;;;;;5007863;28;20838;-70
2024/01/28 03:37:08;;;;;;;20.58;7.65;;;-1.20;99.90;;;;;;5006187;28;20066;-72
2024/01/28 03:39:34;;;;;;;22.65;7.40;;;-1.20;99.90;;;;;;4994781;28;20545;-69
2024/01/28 03:41:59;;;;;;;21.70;7.35;;;-1.10;99.90;;;;;;5002041;28;20040;-71
2024/01/28 03:44:25;;;;;;;16.40;6.82;;;-1.20;99.90;;;;;;5004873;28;20046;-75
2024/01/28 03:46:53;;;;;;;19.97;6.43;;;-1.20;99.90;;;;;;5006538;28;20038;-71
2024/01/28 03:49:19;;;;;;;16.92;6.95;;;-1.20;99.90;;;;;;5006544;28;20042;-71
2024/01/28 03:51:45;;;;;;;18.50;6.80;;;-1.20;99.90;;;;;;5004515;28;20160;-72
2024/01/28 03:54:11;;;;;;;24.85;7.28;;;-1.10;99.90;;;;;;5007776;28;20117;-71
2024/01/28 03:56:37;;;;;;;17.17;7.20;;;-1.10;99.90;;;;;;5006995;28;20036;-72
2024/01/28 03:59:03;;;;;;;17.17;7.10;;;-1.10;99.90;;;;;;5007819;28;20030;-71
2024/01/28 04:01:32;;;;;;;19.77;7.32;;;-1.20;99.90;;;;;;5003728;28;20111;-75
2024/01/28 04:03:58;;;;;;;20.75;7.63;;;-1.20;99.90;;;;;;5008482;28;20034;-71
2024/01/28 04:06:24;;;;;;;16.95;6.88;;;-1.30;99.90;;;;;;5019294;28;20712;-69
2024/01/28 04:08:52;;;;;;;19.40;7.28;;;-1.30;99.90;;;;;;4989174;28;20042;-71
2024/01/28 04:11:18;;;;;;;25.70;7.88;;;-1.40;99.90;;;;;;4988762;28;20498;-71
2024/01/28 04:13:43;;;;;;;19.88;6.53;;;-1.40;99.90;;;;;;4987889;28;20089;-70
2024/01/28 04:16:09;;;;;;;21.02;7.55;;;-1.30;99.90;;;;;;4997736;28;20068;-70
2024/01/28 04:18:34;;;;;;;20.92;7.32;;;-1.40;99.90;;;;;;5002419;28;20044;-71
2024/01/28 04:21:00;;;;;;;21.80;7.55;;;-1.40;99.90;;;;;;5006673;28;20084;-70
2024/01/28 04:23:26;;;;;;;18.75;6.80;;;-1.50;99.90;;;;;;5003608;28;20121;-70
2024/01/28 04:25:51;;;;;;;28.05;7.40;;;-1.50;99.90;;;;;;4989128;28;20034;-71
2024/01/28 04:28:17;;;;;;;18.85;6.85;;;-1.50;99.90;;;;;;5001020;28;20538;-71
2024/01/28 04:30:42;;;;;;;19.88;7.05;;;-1.50;99.90;;;;;;5010613;28;20045;-71
2024/01/28 04:33:08;;;;;;;17.05;6.53;;;-1.50;99.90;;;;;;5004491;28;20042;-72
2024/01/28 04:35:34;;;;;;;16.98;6.53;;;-1.50;99.90;;;;;;4991416;28;20050;-72
2024/01/28 04:37:59;;;;;;;18.73;6.85;;;-1.50;99.90;;;;;;4992752;28;20046;-72
2024/01/28 04:40:25;;;;;;;17.77;7.05;;;-1.50;99.90;;;;;;4991978;28;20472;-71
2024/01/28 04:42:50;;;;;;;17.05;6.18;;;-1.60;99.90;;;;;;4991268;28;20068;-71
2024/01/28 04:45:17;;;;;;;20.58;6.82;;;-1.60;99.90;;;;;;5004752;28;20062;-71
2024/01/28 04:47:42;;;;;;;20.13;6.28;;;-1.60;99.90;;;;;;5001494;28;20029;-71
2024/01/28 04:50:09;;;;;;;18.02;5.90;;;-1.50;99.90;;;;;;5011497;28;20108;-70
2024/01/28 04:52:34;;;;;;;16.67;6.10;;;-1.50;99.90;;;;;;5010591;28;20076;-71
2024/01/28 04:55:00;;;;;;;17.20;6.43;;;-1.50;99.90;;;;;;5011484;28;20471;-71
2024/01/28 04:57:25;;;;;;;22.27;6.55;;;-1.30;99.90;;;;;;5007988;28;20031;-70
2024/01/28 04:59:51;;;;;;;14.45;6.28;;;-1.30;99.90;;;;;;4990796;28;20023;-70
2024/01/28 05:02:17;;;;;;;17.35;6.35;;;-1.50;99.90;;;;;;4994739;28;20027;-71
2024/01/28 05:04:42;;;;;;;19.30;6.10;;;-1.60;99.90;;;;;;4991754;28;20045;-71
2024/01/28 05:07:09;;;;;;;17.25;6.28;;;-1.50;99.90;;;;;;4991516;28;20053;-71
2024/01/28 05:09:35;;;;;;;18.40;7.30;;;-1.40;99.90;;;;;;5003738;28;20463;-70
2024/01/28 05:12:00;;;;;;;19.35;7.50;;;-1.50;99.90;;;;;;4999761;28;20041;-70
2024/01/28 05:14:26;;;;;;;28.50;9.23;;;-1.60;99.90;;;;;;5006705;28;20062;-71
2024/01/28 05:16:52;;;;;;;27.85;8.75;;;-1.50;99.90;;;;;;4996933;28;20481;-71
2024/01/28 05:19:18;;;;;;;25.45;8.70;;;-1.40;99.90;;;;;;4995857;28;20083;-72
2024/01/28 05:21:43;;;;;;;19.55;6.75;;;-1.30;99.90;;;;;;5007661;28;20056;-70
2024/01/28 05:24:09;;;;;;;25.52;7.63;;;-1.30;99.90;;;;;;4998118;28;20057;-70
2024/01/28 05:26:35;;;;;;;24.10;7.30;;;-1.20;99.90;;;;;;5006094;28;20061;-73
2024/01/28 05:29:05;;;;;;;24.65;7.80;;;-1.20;99.90;;;;;;4995795;28;20039;-71
2024/01/28 05:31:32;;;;;;;19.10;7.07;;;-1.20;99.90;;;;;;4991015;28;20022;-75
2024/01/28 05:33:58;;;;;;;22.25;8.07;;;-1.10;99.90;;;;;;5007105;28;20101;-71
2024/01/28 05:36:23;;;;;;;17.30;7.38;;;-1.10;99.90;;;;;;5009051;28;20045;-71
2024/01/28 05:38:49;;;;;;;16.13;6.90;;;-1.00;99.90;;;;;;5007884;28;20042;-71
2024/01/28 05:41:15;;;;;;;21.85;7.38;;;-1.00;99.90;;;;;;5010043;28;20026;-71
2024/01/28 05:43:40;;;;;;;19.27;7.10;;;-1.00;99.90;;;;;;5009659;28;20787;-71
2024/01/28 05:46:06;;;;;;;18.40;6.82;;;-1.00;99.90;;;;;;5010350;28;20462;-71
2024/01/28 05:48:33;;;;;;;23.55;7.05;;;-1.10;99.90;;;;;;5008278;28;20037;-73
2024/01/28 05:50:59;;;;;;;16.95;6.75;;;-1.10;99.90;;;;;;5002621;28;20034;-70
2024/01/28 05:53:25;;;;;;;15.55;5.88;;;-1.20;99.90;;;;;;4996599;28;20395;-69
2024/01/28 05:55:52;;;;;;;19.95;6.28;;;-1.20;99.90;;;;;;5005878;28;20034;-69
2024/01/28 05:58:19;;;;;;;15.70;6.00;;;-1.20;99.90;;;;;;5009169;28;20540;-69
2024/01/28 06:00:45;;;;;;;17.00;5.70;;;-1.10;99.90;;;;;;4999341;28;20152;-71
2024/01/28 06:03:10;;;;;;;16.08;6.05;;;-1.20;99.90;;;;;;5001557;28;20129;-70
2024/01/28 06:05:36;;;;;;;18.27;6.10;;;-1.20;99.90;;;;;;5003656;28;20121;-73
2024/01/28 06:08:01;;;;;;;14.60;5.60;;;-1.20;99.90;;;;;;5005959;28;20607;-70
2024/01/28 06:10:27;;;;;;;18.33;6.40;;;-1.30;99.90;;;;;;5009198;28;20030;-71
2024/01/28 06:12:53;;;;;;;27.88;9.80;;;-1.30;99.90;;;;;;5009028;28;20057;-70
2024/01/28 06:15:18;;;;;;;30.17;11.70;;;-1.20;99.90;;;;;;5010019;28;20459;-71
2024/01/28 06:17:44;;;;;;;20.25;8.18;;;-1.10;99.90;;;;;;5004363;28;20057;-71
2024/01/28 06:20:10;;;;;;;20.42;7.43;;;-1.10;99.90;;;;;;5004446;28;20041;-69
2024/01/28 06:22:36;;;;;;;20.27;7.13;;;-1.10;99.90;;;;;;5009843;28;20032;-72
2024/01/28 06:25:02;;;;;;;22.33;7.90;;;-1.10;99.90;;;;;;5009535;28;20034;-70
2024/01/28 06:27:29;;;;;;;19.77;7.45;;;-0.80;99.90;;;;;;4995598;28;20041;-71
2024/01/28 06:29:55;;;;;;;19.70;7.25;;;-0.60;99.90;;;;;;5001107;28;20626;-70
2024/01/28 06:32:22;;;;;;;24.35;7.88;;;-0.30;99.90;;;;;;5009692;28;20091;-70
2024/01/28 06:34:48;;;;;;;24.25;8.23;;;-0.10;99.90;;;;;;5008816;28;20066;-70
2024/01/28 06:37:14;;;;;;;22.48;7.95;;;0.00;99.90;;;;;;5024222;28;20113;-70
2024/01/28 06:39:39;;;;;;;29.83;10.95;;;0.20;99.90;;;;;;5008565;28;20444;-71
2024/01/28 06:42:05;;;;;;;53.47;18.42;;;0.30;99.90;;;;;;5004265;28;20160;-69
2024/01/28 06:44:34;;;;;;;31.73;11.13;;;0.40;99.90;;;;;;5001766;28;20087;-70
2024/01/28 06:47:00;;;;;;;57.58;19.50;;;0.50;99.90;;;;;;5007836;28;20037;-71
2024/01/28 06:49:26;;;;;;;47.85;16.63;;;0.40;99.90;;;;;;5008904;28;20061;-70
2024/01/28 06:51:52;;;;;;;26.70;10.02;;;0.50;99.90;;;;;;5006900;28;20037;-71
2024/01/28 06:54:19;;;;;;;20.95;8.73;;;0.60;99.90;;;;;;5007672;28;20473;-70
2024/01/28 06:56:45;;;;;;;19.67;8.43;;;0.70;99.90;;;;;;5007013;28;20083;-70
2024/01/28 06:59:11;;;;;;;20.48;7.65;;;0.70;99.90;;;;;;4997299;28;20046;-68
2024/01/28 07:01:37;;;;;;;26.10;8.18;;;0.80;99.90;;;;;;5007841;28;20041;-75
2024/01/28 07:04:02;;;;;;;15.98;6.93;;;0.80;99.90;;;;;;5007961;28;20029;-71
2024/01/28 07:06:28;;;;;;;20.02;7.82;;;1.00;99.90;;;;;;5006849;28;20063;-71
2024/01/28 07:08:53;;;;;;;18.35;6.65;;;1.20;99.90;;;;;;5006462;28;20528;-71
2024/01/28 07:11:19;;;;;;;21.00;7.95;;;1.10;99.90;;;;;;5008432;28;20044;-71
2024/01/28 07:13:45;;;;;;;20.02;7.55;;;1.10;99.90;;;;;;5008368;28;20406;-70
2024/01/28 07:16:12;;;;;;;17.50;7.90;;;1.20;99.90;;;;;;5019006;28;20045;-70
2024/01/28 07:18:39;;;;;;;17.75;6.95;;;1.00;99.90;;;;;;4995133;28;20034;-76
2024/01/28 07:21:05;;;;;;;19.60;7.40;;;1.10;99.90;;;;;;4995727;28;20075;-70
2024/01/28 07:23:31;;;;;;;19.25;8.30;;;1.10;99.90;;;;;;5003221;28;20034;-70
2024/01/28 07:25:57;;;;;;;18.40;7.15;;;1.10;99.90;;;;;;5004851;28;20500;-72
2024/01/28 07:28:22;;;;;;;21.95;6.90;;;1.10;99.90;;;;;;4998004;28;20089;-70
2024/01/28 07:30:48;;;;;;;18.88;7.03;;;1.30;99.90;;;;;;4997695;28;20034;-71
2024/01/28 07:33:15;;;;;;;16.27;7.50;;;1.40;99.90;;;;;;4999737;28;20025;-71
2024/01/28 07:35:41;;;;;;;16.58;6.57;;;1.60;99.90;;;;;;5003136;28;20034;-75
2024/01/28 07:38:08;;;;;;;21.10;6.68;;;1.70;99.90;;;;;;5005266;28;20390;-71
2024/01/28 07:40:34;;;;;;;14.93;6.43;;;1.80;99.90;;;;;;5008045;28;20029;-71
2024/01/28 07:43:00;;;;;;;18.25;7.88;;;1.90;99.90;;;;;;4997899;28;20036;-71
2024/01/28 07:45:26;;;;;;;15.73;6.40;;;2.10;99.90;;;;;;5002180;28;20057;-71
2024/01/28 07:47:51;;;;;;;16.10;6.90;;;2.10;99.90;;;;;;5005352;28;20030;-72
2024/01/28 07:50:18;;;;;;;18.17;6.13;;;2.10;99.90;;;;;;5006787;28;20035;-71
2024/01/28 07:52:43;;;;;;;14.23;6.10;;;2.30;99.90;;;;;;5004722;28;20042;-72
2024/01/28 07:55:11;;;;;;;17.08;6.00;;;2.40;99.90;;;;;;5008345;28;20117;-71
2024/01/28 07:57:37;;;;;;;14.52;6.25;;;2.60;99.90;;;;;;5007719;28;20057;-70
2024/01/28 08:00:04;;;;;;;15.40;6.10;;;2.70;99.90;;;;;;5006181;28;20073;-71
2024/01/28 08:02:30;;;;;;;13.60;5.88;;;2.80;99.90;;;;;;5009962;28;20040;-69
2024/01/28 08:04:56;;;;;;;13.95;5.72;;;2.90;99.90;;;;;;5008916;28;20469;-71
2024/01/28 08:07:22;;;;;;;14.80;6.50;;;3.00;99.90;;;;;;5011172;28;20321;-71
2024/01/28 08:09:48;;;;;;;14.05;6.22;;;3.10;99.90;;;;;;5000532;28;20446;-72
2024/01/28 08:12:14;;;;;;;13.60;6.45;;;3.20;99.90;;;;;;5010656;28;20084;-72
2024/01/28 08:14:39;;;;;;;13.15;5.93;;;2.90;99.90;;;;;;5001521;28;20266;-72
2024/01/28 08:17:05;;;;;;;14.77;5.80;;;3.10;99.90;;;;;;5011127;28;20038;-71
2024/01/28 08:19:31;;;;;;;15.50;5.85;;;3.30;99.90;;;;;;5009977;28;20409;-71
2024/01/28 08:21:58;;;;;;;13.15;5.68;;;3.50;99.90;;;;;;5012217;28;20058;-72
2024/01/28 08:24:24;;;;;;;16.38;6.70;;;3.60;99.90;;;;;;5011863;28;20065;-70
2024/01/28 08:26:50;;;;;;;14.57;6.07;;;3.70;99.90;;;;;;5011557;28;20546;-71
2024/01/28 08:29:16;;;;;;;12.95;5.70;;;3.90;99.90;;;;;;5011219;28;20104;-72
2024/01/28 08:31:41;;;;;;;11.73;5.35;;;4.00;99.90;;;;;;5010722;28;20025;-75
2024/01/28 08:34:07;;;;;;;13.82;5.97;;;4.10;99.90;;;;;;5011685;28;20034;-72
2024/01/28 08:36:33;;;;;;;15.50;6.82;;;4.20;99.90;;;;;;5011284;28;20573;-72
2024/01/28 08:38:58;;;;;;;14.82;6.03;;;4.30;99.90;;;;;;5010150;28;20030;-72
2024/01/28 08:41:24;;;;;;;11.80;5.13;;;4.40;99.90;;;;;;5010286;28;20054;-72
2024/01/28 08:43:50;;;;;;;11.95;5.57;;;4.50;99.90;;;;;;5005383;28;20050;-72
2024/01/28 08:46:16;;;;;;;12.60;6.35;;;4.70;99.90;;;;;;5008968;28;20034;-72
2024/01/28 08:48:42;;;;;;;13.13;5.57;;;4.90;99.90;;;;;;5010436;28;20129;-73
2024/01/28 08:51:08;;;;;;;9.68;4.97;;;5.00;99.90;;;;;;5010564;28;20044;-73
2024/01/28 08:53:34;;;;;;;13.13;5.40;;;5.10;99.90;;;;;;5011431;28;20022;-71
2024/01/28 08:55:59;;;;;;;15.18;5.40;;;5.20;99.90;;;;;;5011308;28;20033;-73
2024/01/28 08:58:26;;;;;;;11.40;5.13;;;5.40;99.90;;;;;;5011672;28;20066;-73
2024/01/28 09:00:51;;;;;;;22.63;9.38;;;5.50;99.90;;;;;;5010070;28;20037;-74
2024/01/28 09:03:17;;;;;;;22.70;8.23;;;5.50;99.90;;;;;;5011384;28;20022;-72
2024/01/28 09:05:43;;;;;;;13.27;5.60;;;5.60;99.90;;;;;;5009923;28;20367;-74
2024/01/28 09:08:08;;;;;;;18.23;7.55;;;5.70;99.90;;;;;;5011043;28;20111;-74
2024/01/28 09:10:34;;;;;;;15.98;6.15;;;5.70;99.90;;;;;;5011091;28;20033;-74
2024/01/28 09:12:59;;;;;;;14.20;6.13;;;5.90;99.90;;;;;;5010886;28;20153;-73
2024/01/28 09:15:25;;;;;;;10.82;4.35;;;6.10;99.90;;;;;;5011302;28;20465;-72
2024/01/28 09:17:51;;;;;;;10.02;4.68;;;6.20;99.90;;;;;;5010181;28;20030;-72
2024/01/28 09:20:17;;;;;;;13.00;5.60;;;6.20;99.90;;;;;;5007552;28;20113;-72
2024/01/28 09:22:42;;;;;;;11.10;4.70;;;6.20;99.90;;;;;;5011174;28;20032;-73
2024/01/28 09:25:08;;;;;;;10.73;4.97;;;6.20;99.90;;;;;;5010132;28;20396;-73
2024/01/28 09:27:34;;;;;;;12.50;6.30;;;6.40;99.90;;;;;;5010998;28;20033;-72
2024/01/28 09:29:59;;;;;;;15.05;6.20;;;6.50;99.90;;;;;;5018245;28;20042;-73
2024/01/28 09:32:25;;;;;;;14.60;7.00;;;6.80;99.90;;;;;;5008025;28;20038;-72
2024/01/28 09:34:51;;;;;;;10.90;6.00;;;7.10;99.90;;;;;;5000672;28;20034;-73
2024/01/28 09:37:18;;;;;;;13.43;6.25;;;6.80;99.90;;;;;;5003538;28;20394;-73
2024/01/28 09:39:44;;;;;;;13.25;6.30;;;6.60;99.90;;;;;;5002359;28;20141;-72
2024/01/28 09:42:17;;;;;;;16.30;7.55;;;6.50;99.90;;;;;;5005273;28;20087;-73
2024/01/28 09:44:42;;;;;;;19.42;9.25;;;6.20;99.90;;;;;;5009790;28;20108;-73
2024/01/28 09:47:08;;;;;;;20.20;9.85;;;6.10;99.90;;;;;;5004045;28;20046;-72
2024/01/28 09:49:39;;;;;;;24.92;10.32;;;6.10;99.90;;;;;;5005491;28;20658;-72
2024/01/28 09:52:08;;;;;;;14.98;6.85;;;6.20;99.90;;;;;;5006732;28;20057;-72
2024/01/28 09:54:33;;;;;;;13.93;5.90;;;6.20;99.90;;;;;;5008641;28;20109;-73
2024/01/28 09:57:01;;;;;;;15.50;6.25;;;6.50;99.90;;;;;;5005988;28;20112;-73
2024/01/28 09:59:29;;;;;;;12.75;6.45;;;6.80;99.90;;;;;;5008643;28;20193;-72
2024/01/28 10:01:55;;;;;;;13.15;6.10;;;6.80;99.90;;;;;;5007422;28;20057;-73
2024/01/28 10:04:21;;;;;;;13.35;6.10;;;6.90;99.90;;;;;;5006689;28;20467;-73
2024/01/28 10:06:48;;;;;;;12.45;5.35;;;6.90;99.90;;;;;;5007310;28;20121;-75
2024/01/28 10:09:14;;;;;;;14.30;6.32;;;7.10;99.90;;;;;;5008553;28;20040;-70
2024/01/28 10:11:40;;;;;;;11.23;5.60;;;7.30;99.90;;;;;;5007614;28;20030;-72
2024/01/28 10:14:05;;;;;;;14.10;6.40;;;7.40;99.90;;;;;;5007756;28;20092;-71
2024/01/28 10:16:33;;;;;;;9.48;4.78;;;7.00;99.90;;;;;;4990814;28;20088;-72
2024/01/28 10:18:59;;;;;;;9.57;5.25;;;7.10;99.90;;;;;;4990013;28;20038;-71
2024/01/28 10:21:25;;;;;;;9.55;3.60;;;7.50;99.90;;;;;;5026212;28;20508;-70
2024/01/28 10:23:51;;;;;;;8.43;4.20;;;7.80;99.90;;;;;;5007748;28;20459;-74
2024/01/28 10:26:17;;;;;;;9.77;4.75;;;8.00;99.90;;;;;;5008848;28;20038;-73
2024/01/28 10:28:43;;;;;;;5.93;2.90;;;8.00;99.90;;;;;;5008951;28;20026;-71
2024/01/28 10:31:09;;;;;;;8.00;3.45;;;8.10;99.90;;;;;;5008294;28;20038;-71
2024/01/28 10:33:34;;;;;;;8.70;3.67;;;8.20;99.90;;;;;;5004223;28;20060;-72
2024/01/28 10:36:05;;;;;;;8.68;3.53;;;8.30;99.90;;;;;;5002839;28;20061;-71
2024/01/28 10:38:34;;;;;;;6.90;3.00;;;8.40;99.90;;;;;;5007052;28;20048;-71
2024/01/28 10:41:01;;;;;;;6.38;3.03;;;8.50;99.90;;;;;;4994064;28;20084;-71
2024/01/28 10:43:30;;;;;;;6.20;2.76;;;8.60;99.90;;;;;;4967890;28;1109210;-72
2024/01/28 10:45:57;;;;;;;6.45;3.20;;;8.80;99.90;;;;;;5008860;28;20115;-71
2024/01/28 10:48:23;;;;;;;9.23;3.60;;;8.90;99.90;;;;;;5007813;28;20033;-70
2024/01/28 10:50:53;;;;;;;7.07;3.22;;;9.00;99.90;;;;;;5002996;28;20030;-76
2024/01/28 10:53:20;;;;;;;6.07;2.88;;;8.90;99.90;;;;;;5007478;28;20688;-71
2024/01/28 10:55:46;;;;;;;5.13;2.85;;;8.80;99.90;;;;;;5009246;28;20140;-72
2024/01/28 10:58:12;;;;;;;3.88;2.03;;;8.90;99.90;;;;;;5008908;28;20038;-71
2024/01/28 11:00:39;;;;;;;4.45;2.20;;;8.90;99.90;;;;;;5008951;28;20041;-71
2024/01/28 11:03:08;;;;;;;4.18;2.10;;;9.00;99.90;;;;;;5008199;28;20033;-71
2024/01/28 11:05:37;;;;;;;5.78;2.30;;;9.20;99.90;;;;;;5009013;28;20455;-72
2024/01/28 11:08:04;;;;;;;5.18;2.47;;;9.50;99.90;;;;;;5008322;28;20118;-72
2024/01/28 11:10:34;;;;;;;4.95;2.65;;;9.60;99.90;;;;;;5006762;28;20050;-70
2024/01/28 11:13:02;;;;;;;4.07;1.70;;;9.70;99.90;;;;;;5004978;28;20034;-72
2024/01/28 11:15:30;;;;;;;3.90;1.88;;;9.80;99.50;;;;;;5007670;28;20046;-71
2024/01/28 11:17:56;;;;;;;5.88;2.03;;;9.90;98.10;;;;;;5008319;28;20054;-70
2024/01/28 11:20:30;;;;;;;7.63;1.65;;;10.10;98.70;;;;;;5008107;28;20080;-72
2024/01/28 11:23:01;;;;;;;3.30;1.55;;;10.30;98.40;;;;;;5007578;28;20033;-72
2024/01/28 11:25:28;;;;;;;4.60;2.00;;;10.60;97.10;;;;;;5005893;28;20036;-71
2024/01/28 11:28:02;;;;;;;3.53;1.80;;;10.90;98.30;;;;;;5006804;28;20046;-74
2024/01/28 11:30:28;;;;;;;5.25;2.50;;;11.10;96.90;;;;;;5003445;28;20037;-71
2024/01/28 11:33:11;;;;;;;3.38;1.60;;;11.00;93.00;;;;;;5003967;28;20030;-75
2024/01/28 11:35:37;;;;;;;9.20;2.92;;;11.00;96.10;;;;;;5008501;28;20022;-72
2024/01/28 11:38:06;;;;;;;4.47;2.17;;;11.30;95.90;;;;;;5005718;28;20153;-71
2024/01/28 11:40:37;;;;;;;3.60;1.70;;;11.30;94.00;;;;;;5008211;28;20038;-72
2024/01/28 11:43:09;;;;;;;2.67;1.60;;;11.20;94.60;;;;;;5005261;28;20041;-72
2024/01/28 11:45:36;;;;;;;2.20;1.38;;;11.40;93.60;;;;;;5007663;28;20531;-72
2024/01/28 11:48:09;;;;;;;4.72;1.40;;;11.40;93.10;;;;;;5007136;28;20642;-71
2024/01/28 11:50:35;;;;;;;3.97;1.30;;;11.30;91.00;;;;;;5007932;28;20372;-73
2024/01/28 11:53:00;;;;;;;3.00;1.55;;;11.60;90.40;;;;;;4992082;28;20037;-71
2024/01/28 11:55:26;;;;;;;4.18;1.98;;;11.70;88.80;;;;;;5005885;28;20026;-72
2024/01/28 11:57:52;;;;;;;3.25;1.50;;;11.80;86.40;;;;;;5006338;28;20038;-72
2024/01/28 12:00:18;;;;;;;2.63;1.40;;;11.90;84.30;;;;;;5006401;28;20033;-71
2024/01/28 12:02:44;;;;;;;3.00;1.42;;;12.20;82.70;;;;;;4991204;28;20030;-73
2024/01/28 12:05:10;;;;;;;2.50;1.42;;;12.10;79.40;;;;;;5006574;28;20501;-72
2024/01/28 12:07:39;;;;;;;3.08;1.35;;;12.10;80.30;;;;;;5008544;28;20034;-71
2024/01/28 12:10:12;;;;;;;3.58;1.42;;;12.20;80.70;;;;;;5001487;28;20045;-71
2024/01/28 12:12:41;;;;;;;3.58;1.48;;;12.40;80.30;;;;;;4999507;28;20084;-70
2024/01/28 12:15:08;;;;;;;2.85;1.30;;;12.20;78.20;;;;;;4996335;28;20042;-72
2024/01/28 12:17:35;;;;;;;4.90;2.17;;;12.40;76.60;;;;;;5001816;28;20038;-71
2024/01/28 12:20:02;;;;;;;4.60;2.20;;;12.50;74.90;;;;;;5006751;28;20398;-70
2024/01/28 12:22:34;;;;;;;3.63;1.60;;;12.70;79.20;;;;;;5007944;28;20117;-72
2024/01/28 12:25:18;;;;;;;2.10;1.20;;;13.10;72.10;;;;;;5006455;28;20044;-71
2024/01/28 12:27:44;;;;;;;2.83;1.40;;;12.90;73.90;;;;;;5008494;28;20030;-71
2024/01/28 12:30:11;;;;;;;3.15;1.33;;;13.10;68.30;;;;;;5005788;28;20485;-70
2024/01/28 12:32:39;;;;;;;4.00;1.42;;;12.90;70.80;;;;;;4999291;28;20848;-71
2024/01/28 12:35:07;;;;;;;2.10;1.33;;;13.00;70.30;;;;;;5021258;28;20471;-72
2024/01/28 12:37:38;;;;;;;2.33;1.23;;;13.30;69.20;;;;;;5005832;28;20037;-72
2024/01/28 12:40:05;;;;;;;3.72;1.77;;;13.20;69.20;;;;;;5007544;28;20037;-72